Aérodrome :
LOGIN :

S'inscrire | Disclaimer

   EN    FR    IT 

 










Légende :    VFR   VFR Marginal   IFR   IFR Intensif   IFR Très Intensif
Visi : 
Plafond : 
>= 8 km
>= 3000ft
5 à 8 km
1000 à 3000 ft
1500m à 5 km
500 à 1000 ft
800 à 1500m
200 à 500 ft
< 800m
< 200 ft
Symboles :   Orages  Brouillard  Fortes neiges  Fortes précipitations  Vent > 20 kt
SIGMETs :   Divers  Orages  Givrage  Turbulence  Onde Orograph.  Cendres Volcan.







- Altitude de l'aérodrome : 82 ft
- Code IATA : ALG


DAAG - Alger Houari Boumedienne

DERNIER METAR :
  • 222030Z 08006KT 9999 FEW020 17/15 Q1019

METARs EXPIRÉS :
  • 222000Z 08006KT 9999 FEW023TCU 18/16 Q1019
  • 221930Z 09006KT 9999 FEW023TCU 18/16 Q1019
  • 221900Z 07006KT 9999 FEW023TCU 19/16 Q1019
  • 221830Z 08007KT 9999 FEW026TCU 20/16 Q1018
  • 221800Z 08007KT 040V110 9999 FEW026TCU 22/16 Q1018

TAF TAF DAAG
Valide du 22 à 18h jusqu'au 23 à 18h UTC


221700Z 2218/2318 03010KT 9999 FEW026
TEMPO 2218/2221 FEW023TCU FEW026CB
BECMG 2219/2222 VRB02KT
BECMG 2309/2312 03010KT
Pas de NOTAMs connus pour ce terrain.
1 SIGMET publié pour la FIR Alger (DAAA) :
 
Orages noyés dans la masse
DAAA SIGMET 9 VALID 222000/222200 DAMM
DAAA ALGER FIR EMBD TS OBS W OF LINE N3336 E00633 - N3139 E00640 TOP FL300 MOV E NC=



MET'MAP, la Météo Aéronautique d'un coup d'oeil ! - Copyright ORBIFLY Décembre 2007 - Disclaimer

ORBIFLY MET'MAP TEAM :

Programmation & Développement : Alexandra Zaïnal
Conception & Développement : Baudouin d'Aumeries
Co-Programmation & Développement : Marc-Olivier Méhu
Soutien technique & logistique : Manuel Goepfert

Contact : metmap@orbifly.com




SOURCES & CREDITS :

   NOAA